Time;durP1;ratioP1;P1;durP2;ratioP2;P2;SDS_P1;SDS_P2;PMS_P1;PMS_P2;Temp;Humidity;BMP_temperature;BMP_pressure;BME280_temperature;BME280_humidity;BME280_pressure;Samples;Min_cycle;Max_cycle;Signal;HPM_P1;HPM_P2
2022/05/29 00:00:25;;;;;;;0.50;0.40;;;15.20;1.00;;;;;;5117614;27;20529;-60
2022/05/29 00:02:51;;;;;;;1.20;0.40;;;15.10;1.00;;;;;;5115575;27;20567;-60
2022/05/29 00:05:18;;;;;;;0.47;0.37;;;15.00;1.00;;;;;;5115399;27;20544;-60
2022/05/29 00:07:49;;;;;;;0.60;0.30;;;14.90;1.00;;;;;;5114412;27;20559;-59
2022/05/29 00:10:17;;;;;;;0.60;0.50;;;14.80;1.00;;;;;;5115702;27;20464;-60
2022/05/29 00:12:44;;;;;;;2.00;0.40;;;14.80;1.00;;;;;;5114882;27;20539;-59
2022/05/29 00:15:15;;;;;;;0.60;0.40;;;14.80;1.00;;;;;;5115525;27;20531;-60
2022/05/29 00:17:42;;;;;;;0.87;0.43;;;14.80;1.00;;;;;;5114005;27;21149;-60
2022/05/29 00:20:10;;;;;;;1.17;0.40;;;14.70;1.00;;;;;;5112173;28;20449;-59
2022/05/29 00:22:39;;;;;;;0.50;0.40;;;14.50;1.00;;;;;;5122917;27;20490;-60
2022/05/29 00:25:10;;;;;;;0.50;0.30;;;14.40;1.00;;;;;;5134030;27;20652;-59
2022/05/29 00:27:39;;;;;;;0.80;0.40;;;14.30;1.00;;;;;;5117997;27;20555;-59
2022/05/29 00:30:08;;;;;;;1.07;0.40;;;14.30;1.00;;;;;;5116385;27;20951;-59
2022/05/29 00:32:36;;;;;;;0.90;0.40;;;14.30;1.00;;;;;;5116297;28;20492;-60
2022/05/29 00:35:03;;;;;;;0.63;0.40;;;14.30;1.00;;;;;;5114937;28;20461;-58
2022/05/29 00:37:35;;;;;;;0.77;0.50;;;14.40;1.00;;;;;;5115196;27;20516;-62
2022/05/29 00:40:03;;;;;;;0.57;0.30;;;14.40;1.00;;;;;;5115948;28;20551;-59
2022/05/29 00:42:30;;;;;;;0.57;0.30;;;14.50;1.00;;;;;;5115840;28;20484;-58
2022/05/29 00:44:57;;;;;;;1.70;0.50;;;14.60;1.00;;;;;;5127313;27;20488;-59
2022/05/29 00:47:27;;;;;;;0.57;0.40;;;14.70;1.00;;;;;;5136330;27;20562;-59
2022/05/29 00:49:55;;;;;;;0.83;0.40;;;14.70;1.00;;;;;;5134645;27;20536;-59
2022/05/29 00:52:25;;;;;;;1.00;0.43;;;14.70;1.00;;;;;;5134922;27;20961;-59
2022/05/29 00:54:55;;;;;;;0.50;0.40;;;14.80;1.00;;;;;;5113390;27;20551;-59
2022/05/29 00:57:32;;;;;;;0.50;0.40;;;14.90;1.00;;;;;;5113543;28;20807;-58
2022/05/29 01:00:02;;;;;;;0.50;0.40;;;14.90;1.00;;;;;;5113609;27;20543;-58
2022/05/29 01:02:29;;;;;;;1.30;0.40;;;14.90;1.00;;;;;;5112103;28;20485;-59
2022/05/29 01:04:58;;;;;;;1.37;0.50;;;14.90;1.00;;;;;;5112315;27;20553;-59
2022/05/29 01:07:28;;;;;;;1.60;0.43;;;14.90;1.00;;;;;;5111827;28;20464;-59
2022/05/29 01:09:55;;;;;;;0.60;0.40;;;14.90;1.00;;;;;;5113987;28;20456;-59
2022/05/29 01:12:32;;;;;;;0.70;0.40;;;14.80;1.00;;;;;;5127556;27;20467;-59
2022/05/29 01:15:18;;;;;;;0.50;0.30;;;14.80;1.00;;;;;;5134127;27;20530;-59
2022/05/29 01:17:52;;;;;;;0.50;0.40;;;14.80;1.00;;;;;;5133653;27;20524;-58
2022/05/29 01:20:38;;;;;;;1.17;0.40;;;14.70;1.00;;;;;;5119507;27;20536;-58
2022/05/29 01:23:30;;;;;;;0.70;0.40;;;14.60;1.00;;;;;;5130057;27;20484;-59
2022/05/29 01:26:34;;;;;;;1.43;0.40;;;14.60;1.00;;;;;;5127865;27;20473;-58
2022/05/29 01:29:04;;;;;;;0.60;0.50;;;14.60;1.00;;;;;;5129593;27;20546;-61
2022/05/29 01:31:39;;;;;;;0.70;0.40;;;14.70;1.00;;;;;;5114888;28;20526;-60
2022/05/29 01:34:25;;;;;;;1.10;0.40;;;14.60;1.00;;;;;;5115452;28;20452;-60
2022/05/29 01:37:02;;;;;;;0.60;0.40;;;14.50;1.00;;;;;;5116193;28;20567;-60
2022/05/29 01:39:34;;;;;;;0.70;0.47;;;14.30;1.00;;;;;;5129737;27;20465;-61
2022/05/29 01:42:08;;;;;;;0.57;0.30;;;14.30;1.00;;;;;;5136049;28;20459;-60
2022/05/29 01:44:43;;;;;;;0.60;0.40;;;14.30;1.00;;;;;;5135464;27;20479;-60
2022/05/29 01:47:15;;;;;;;0.70;0.50;;;14.40;1.00;;;;;;5129221;28;20487;-60
2022/05/29 01:49:47;;;;;;;0.53;0.40;;;14.30;1.00;;;;;;5113430;28;20531;-60
2022/05/29 01:52:18;;;;;;;0.50;0.30;;;14.30;1.00;;;;;;5118916;28;20460;-60
2022/05/29 01:54:49;;;;;;;0.70;0.50;;;14.30;1.00;;;;;;5125911;28;20949;-61
2022/05/29 01:57:20;;;;;;;0.63;0.50;;;14.30;1.00;;;;;;5112803;28;20614;-60
2022/05/29 01:59:55;;;;;;;1.03;0.40;;;14.30;1.00;;;;;;5114065;28;20444;-60
2022/05/29 02:02:27;;;;;;;1.07;0.43;;;14.00;1.00;;;;;;5113135;28;20869;-60
2022/05/29 02:04:59;;;;;;;0.70;0.40;;;14.00;1.00;;;;;;5116132;27;20447;-59
2022/05/29 02:10:31;;;;;;;1.63;0.40;;;14.40;1.00;;;;;;5075192;27;20739;-60
2022/05/29 02:13:07;;;;;;;0.60;0.47;;;14.40;1.00;;;;;;5115931;27;20875;-60
2022/05/29 02:15:42;;;;;;;0.80;0.60;;;14.30;1.00;;;;;;5116826;27;20498;-60
2022/05/29 02:18:16;;;;;;;0.80;0.40;;;14.30;1.00;;;;;;5118105;28;20444;-59
2022/05/29 02:20:46;;;;;;;0.53;0.40;;;14.20;1.00;;;;;;5118421;27;20543;-60
2022/05/29 02:23:21;;;;;;;0.77;0.40;;;14.00;1.00;;;;;;5135638;27;20477;-60
2022/05/29 02:25:49;;;;;;;1.60;0.50;;;14.00;1.00;;;;;;5130748;27;20470;-60
2022/05/29 02:28:25;;;;;;;0.87;0.50;;;14.00;1.00;;;;;;5119038;27;20543;-61
2022/05/29 02:31:01;;;;;;;1.10;0.50;;;14.10;1.00;;;;;;5117412;27;20562;-60
2022/05/29 02:33:35;;;;;;;0.70;0.40;;;14.00;1.00;;;;;;5118346;27;20531;-60
2022/05/29 02:36:23;;;;;;;1.23;0.40;;;14.00;1.00;;;;;;5118226;27;20540;-60
2022/05/29 02:39:03;;;;;;;1.00;0.53;;;13.70;1.00;;;;;;5118160;27;20456;-60
2022/05/29 02:41:40;;;;;;;0.60;0.40;;;13.80;1.00;;;;;;5124030;27;20477;-60
2022/05/29 02:44:15;;;;;;;1.90;0.47;;;13.80;1.00;;;;;;5118513;27;20480;-60
2022/05/29 02:46:49;;;;;;;0.70;0.50;;;13.70;1.00;;;;;;5117567;27;20462;-60
2022/05/29 02:49:22;;;;;;;0.60;0.43;;;13.70;1.00;;;;;;5117930;27;20459;-60
2022/05/29 02:51:51;;;;;;;0.80;0.53;;;13.80;1.00;;;;;;5121366;27;20545;-60
2022/05/29 02:54:25;;;;;;;0.63;0.30;;;13.90;1.00;;;;;;5135699;27;21029;-60
2022/05/29 02:56:53;;;;;;;1.10;0.60;;;13.90;1.00;;;;;;5123951;27;20770;-60
2022/05/29 02:59:21;;;;;;;0.53;0.40;;;13.80;1.00;;;;;;5115769;27;20447;-60
2022/05/29 03:02:00;;;;;;;0.90;0.47;;;13.70;1.00;;;;;;5115586;27;20464;-60
2022/05/29 03:04:34;;;;;;;0.63;0.50;;;13.80;1.00;;;;;;5114421;27;20483;-60
2022/05/29 03:07:08;;;;;;;0.70;0.50;;;13.90;1.00;;;;;;5115009;27;20462;-59
2022/05/29 03:09:57;;;;;;;1.60;0.40;;;13.90;1.00;;;;;;5117002;28;20523;-59
2022/05/29 03:12:32;;;;;;;0.60;0.40;;;13.80;1.00;;;;;;5118864;27;20547;-59
2022/05/29 03:15:18;;;;;;;0.70;0.50;;;13.70;1.00;;;;;;5122053;27;20460;-59
2022/05/29 03:17:53;;;;;;;0.70;0.40;;;13.70;1.00;;;;;;5116676;27;20955;-60
2022/05/29 03:20:28;;;;;;;1.47;0.40;;;13.90;1.00;;;;;;5117199;27;20436;-60
2022/05/29 03:23:00;;;;;;;1.20;0.40;;;13.90;1.00;;;;;;5128551;27;20483;-60
2022/05/29 03:25:34;;;;;;;0.80;0.50;;;13.90;1.00;;;;;;5116242;27;20500;-59
2022/05/29 03:28:02;;;;;;;0.60;0.30;;;13.90;1.00;;;;;;5116055;28;20539;-60
2022/05/29 03:30:34;;;;;;;0.80;0.40;;;13.70;1.00;;;;;;5115301;27;21042;-60
2022/05/29 03:33:06;;;;;;;0.50;0.40;;;13.50;1.00;;;;;;5127543;27;20555;-59
2022/05/29 03:35:35;;;;;;;1.30;0.40;;;13.50;1.00;;;;;;5134853;27;20785;-60
2022/05/29 03:38:04;;;;;;;2.70;0.50;;;13.60;1.00;;;;;;5135496;27;20482;-59
2022/05/29 03:40:33;;;;;;;2.40;0.40;;;13.70;1.00;;;;;;5136191;27;20534;-60
2022/05/29 03:43:01;;;;;;;1.20;0.50;;;13.70;1.00;;;;;;5120719;27;20473;-60
2022/05/29 03:45:28;;;;;;;0.67;0.40;;;13.70;1.00;;;;;;5117075;27;20665;-59
2022/05/29 03:47:56;;;;;;;0.70;0.40;;;13.80;1.00;;;;;;5117486;27;20527;-59
2022/05/29 03:50:26;;;;;;;1.27;0.53;;;13.80;1.00;;;;;;5115376;27;20452;-59
2022/05/29 03:52:53;;;;;;;1.00;0.33;;;13.80;1.00;;;;;;5131366;27;20531;-59
2022/05/29 03:55:21;;;;;;;1.10;0.50;;;13.70;1.00;;;;;;5137189;27;20492;-60
2022/05/29 03:57:48;;;;;;;0.63;0.40;;;13.60;1.00;;;;;;5137469;27;20554;-59
2022/05/29 04:00:16;;;;;;;0.80;0.40;;;13.60;1.00;;;;;;5127371;27;20551;-60
2022/05/29 04:02:44;;;;;;;0.50;0.40;;;13.50;1.00;;;;;;5116961;28;20539;-59
2022/05/29 04:05:14;;;;;;;0.60;0.40;;;13.10;1.00;;;;;;5117441;28;20505;-60
2022/05/29 04:13:12;;;;;;;1.37;0.40;;;13.10;1.00;;;;;;5116211;28;20407;-60
2022/05/29 04:15:45;;;;;;;0.90;0.40;;;13.00;1.00;;;;;;5117171;27;20543;-60
2022/05/29 04:18:12;;;;;;;1.90;0.50;;;13.00;1.00;;;;;;5115073;27;20484;-60
2022/05/29 04:20:38;;;;;;;0.50;0.40;;;13.20;1.00;;;;;;5116622;27;20449;-60
2022/05/29 04:23:07;;;;;;;1.33;0.50;;;13.20;1.00;;;;;;5131065;27;20479;-59
2022/05/29 04:25:34;;;;;;;1.80;0.40;;;13.30;1.00;;;;;;5135877;27;20803;-59
2022/05/29 04:28:02;;;;;;;3.10;0.57;;;13.30;1.00;;;;;;5135261;27;20460;-59
2022/05/29 04:30:29;;;;;;;1.27;0.50;;;13.30;1.00;;;;;;5135143;27;20458;-59
2022/05/29 04:33:01;;;;;;;0.60;0.50;;;13.20;1.00;;;;;;5135343;27;20542;-59
2022/05/29 04:35:29;;;;;;;1.43;0.57;;;13.20;28.40;;;;;;5135275;27;20454;-59
2022/05/29 04:37:56;;;;;;;1.00;0.40;;;13.10;99.90;;;;;;5136085;27;20543;-59
2022/05/29 04:40:24;;;;;;;1.03;0.50;;;13.00;99.90;;;;;;5135079;27;20522;-58
2022/05/29 04:42:51;;;;;;;1.53;0.50;;;12.90;68.60;;;;;;5135701;27;20578;-59
2022/05/29 04:45:18;;;;;;;0.53;0.43;;;12.70;99.90;;;;;;5127053;27;20965;-59
2022/05/29 04:47:45;;;;;;;1.53;0.50;;;12.30;99.90;;;;;;5115465;27;20547;-58
2022/05/29 04:50:12;;;;;;;2.63;0.50;;;12.00;99.90;;;;;;5116547;28;20523;-56
2022/05/29 04:52:39;;;;;;;4.20;0.70;;;11.90;1.00;;;;;;5124975;27;20942;-58
2022/05/29 04:55:11;;;;;;;2.10;0.50;;;12.00;1.00;;;;;;5118456;27;20448;-58
2022/05/29 04:57:39;;;;;;;0.70;0.50;;;12.20;1.00;;;;;;5115725;27;20545;-58
2022/05/29 05:00:07;;;;;;;1.93;0.53;;;12.20;99.90;;;;;;5115688;27;20449;-58
2022/05/29 05:02:34;;;;;;;2.47;0.60;;;12.00;1.00;;;;;;5115538;27;20562;-59
2022/05/29 05:05:01;;;;;;;1.33;0.57;;;11.90;1.00;;;;;;5115374;28;20542;-59
2022/05/29 05:07:28;;;;;;;0.70;0.60;;;12.00;99.90;;;;;;5115144;27;20459;-58
2022/05/29 05:09:55;;;;;;;0.80;0.53;;;12.00;1.00;;;;;;5115006;28;20499;-59
2022/05/29 05:12:21;;;;;;;1.00;0.60;;;12.20;99.90;;;;;;5115013;27;20459;-58
2022/05/29 05:14:50;;;;;;;1.23;0.60;;;12.30;1.00;;;;;;5115738;28;20886;-59
2022/05/29 05:17:17;;;;;;;0.80;0.57;;;12.10;99.90;;;;;;5118048;27;20622;-59
2022/05/29 05:19:43;;;;;;;1.17;0.70;;;11.90;99.90;;;;;;5136374;27;20467;-58
2022/05/29 05:22:10;;;;;;;0.67;0.60;;;11.60;1.00;;;;;;5136274;27;20563;-59
2022/05/29 05:24:39;;;;;;;1.10;0.50;;;11.70;99.90;;;;;;5135913;27;20871;-59
2022/05/29 05:27:06;;;;;;;0.80;0.50;;;11.90;99.90;;;;;;5125522;27;20504;-58
2022/05/29 05:29:34;;;;;;;1.20;0.60;;;12.00;99.90;;;;;;5116188;27;20455;-58
2022/05/29 05:32:02;;;;;;;0.97;0.50;;;12.30;99.90;;;;;;5116473;27;20544;-59
2022/05/29 05:34:29;;;;;;;2.00;0.70;;;12.30;99.90;;;;;;5116079;27;20468;-59
2022/05/29 05:36:57;;;;;;;0.70;0.50;;;12.60;99.90;;;;;;5113515;28;20487;-59
2022/05/29 05:39:24;;;;;;;0.73;0.47;;;12.60;99.90;;;;;;5113801;28;20454;-59
2022/05/29 05:41:51;;;;;;;0.70;0.60;;;12.80;99.90;;;;;;5114446;28;20460;-58
2022/05/29 05:44:18;;;;;;;1.73;0.50;;;12.70;1.00;;;;;;5113698;28;20490;-58
2022/05/29 05:46:46;;;;;;;0.90;0.60;;;12.50;99.90;;;;;;5114552;28;20456;-59
2022/05/29 05:49:16;;;;;;;0.80;0.50;;;12.50;1.00;;;;;;5114614;28;20536;-59
2022/05/29 05:51:43;;;;;;;0.83;0.50;;;12.70;1.00;;;;;;5118937;28;20463;-59
2022/05/29 05:54:10;;;;;;;0.53;0.43;;;12.70;1.00;;;;;;5124983;28;20547;-59
2022/05/29 05:56:41;;;;;;;0.60;0.50;;;12.80;1.00;;;;;;5115135;28;20503;-59
2022/05/29 05:59:07;;;;;;;0.70;0.50;;;12.80;1.00;;;;;;5115577;28;20494;-59
2022/05/29 06:01:34;;;;;;;0.73;0.53;;;12.90;1.00;;;;;;5118552;28;20489;-59
2022/05/29 06:04:01;;;;;;;3.83;0.53;;;13.10;1.00;;;;;;5118375;28;20563;-59
2022/05/29 06:06:30;;;;;;;0.87;0.40;;;13.10;1.00;;;;;;5115715;28;20843;-59
2022/05/29 06:08:57;;;;;;;0.70;0.40;;;13.00;1.00;;;;;;5114621;28;20496;-58
2022/05/29 06:11:25;;;;;;;1.90;0.50;;;13.10;1.00;;;;;;5117259;28;20464;-59
2022/05/29 06:13:52;;;;;;;0.90;0.50;;;13.00;99.90;;;;;;5134465;28;20535;-59
2022/05/29 06:16:18;;;;;;;0.90;0.50;;;13.20;1.00;;;;;;5115006;28;20582;-59
2022/05/29 06:18:46;;;;;;;0.60;0.40;;;13.40;1.00;;;;;;5114066;28;20448;-59
2022/05/29 06:21:12;;;;;;;0.60;0.40;;;13.40;99.90;;;;;;5113833;28;21162;-55
2022/05/29 06:23:41;;;;;;;1.10;0.40;;;13.50;99.90;;;;;;5130152;28;20472;-52
2022/05/29 06:26:12;;;;;;;2.33;0.50;;;13.80;99.90;;;;;;5133551;28;20840;-53
2022/05/29 06:28:38;;;;;;;2.23;0.50;;;14.00;99.90;;;;;;5119019;28;20460;-54
2022/05/29 06:31:06;;;;;;;1.10;0.40;;;14.10;99.00;;;;;;5130042;28;20832;-51
2022/05/29 06:33:33;;;;;;;0.83;0.40;;;14.20;99.90;;;;;;5134108;28;20542;-53
2022/05/29 06:36:07;;;;;;;3.60;0.50;;;14.10;1.00;;;;;;5133048;28;20479;-51
2022/05/29 06:38:34;;;;;;;1.00;0.50;;;14.20;1.00;;;;;;5132150;28;20846;-53
2022/05/29 06:41:05;;;;;;;1.57;0.50;;;14.20;1.00;;;;;;5133805;28;20458;-51
2022/05/29 06:43:32;;;;;;;0.53;0.40;;;14.10;1.00;;;;;;5135183;28;20483;-51
2022/05/29 06:45:59;;;;;;;0.60;0.40;;;14.20;1.00;;;;;;5124969;28;20464;-54
2022/05/29 06:48:29;;;;;;;0.87;0.57;;;14.00;1.00;;;;;;5113374;28;20543;-54
2022/05/29 06:50:56;;;;;;;0.50;0.40;;;14.00;1.00;;;;;;5114042;28;20456;-54
2022/05/29 06:53:24;;;;;;;0.80;0.50;;;14.10;1.00;;;;;;5135758;27;20546;-52
2022/05/29 06:55:54;;;;;;;0.70;0.50;;;14.00;1.00;;;;;;5122260;27;20556;-53
2022/05/29 06:58:24;;;;;;;0.50;0.40;;;14.00;1.00;;;;;;5117924;27;20472;-55
2022/05/29 07:09:06;;;;;;;3.13;0.30;;;14.40;1.00;;;;;;5117893;27;20439;-55
2022/05/29 07:11:36;;;;;;;1.30;0.47;;;14.60;1.00;;;;;;5117918;27;20558;-56
2022/05/29 07:14:06;;;;;;;2.07;0.50;;;14.90;1.00;;;;;;5117137;27;21068;-55
2022/05/29 07:16:33;;;;;;;0.60;0.37;;;15.00;1.00;;;;;;5137681;27;20554;-56
2022/05/29 07:19:00;;;;;;;0.83;0.47;;;14.80;1.00;;;;;;5118530;27;20449;-52
2022/05/29 07:21:28;;;;;;;0.80;0.40;;;14.90;1.00;;;;;;5118307;27;20507;-56
2022/05/29 07:23:55;;;;;;;1.43;0.30;;;14.90;1.00;;;;;;5118467;27;20489;-56
2022/05/29 07:26:22;;;;;;;0.50;0.30;;;15.00;1.00;;;;;;5138696;27;20451;-52
2022/05/29 07:28:49;;;;;;;1.20;0.40;;;15.10;1.00;;;;;;5117579;28;20456;-57
2022/05/29 07:31:17;;;;;;;0.60;0.30;;;15.20;1.00;;;;;;5117036;27;20555;-55
2022/05/29 07:33:44;;;;;;;1.13;0.30;;;14.80;1.00;;;;;;5137481;27;20483;-56
2022/05/29 07:36:12;;;;;;;0.80;0.50;;;14.80;1.00;;;;;;5136729;27;20535;-55
2022/05/29 07:38:40;;;;;;;0.70;0.40;;;14.80;1.00;;;;;;5116506;27;20551;-54
2022/05/29 07:43:52;;;;;;;0.50;0.40;;;15.10;1.00;;;;;;5115209;27;20476;-52
2022/05/29 07:46:21;;;;;;;0.80;0.30;;;15.20;1.00;;;;;;5118167;27;20456;-55
2022/05/29 07:48:48;;;;;;;0.50;0.30;;;15.00;1.00;;;;;;5116749;27;20564;-53
2022/05/29 07:51:15;;;;;;;0.50;0.30;;;15.20;1.00;;;;;;5119559;27;20501;-54
2022/05/29 07:53:42;;;;;;;0.50;0.30;;;15.20;1.00;;;;;;5137285;27;20965;-55
2022/05/29 07:56:09;;;;;;;3.40;0.40;;;15.50;1.00;;;;;;5137965;27;20518;-51
2022/05/29 07:58:38;;;;;;;0.60;0.40;;;15.60;1.00;;;;;;5126816;27;20471;-56
2022/05/29 08:01:05;;;;;;;0.90;0.40;;;15.50;1.00;;;;;;5117053;27;20453;-52
2022/05/29 08:03:33;;;;;;;0.70;0.40;;;15.60;1.00;;;;;;5116017;27;20496;-54
2022/05/29 08:06:00;;;;;;;0.77;0.33;;;15.40;1.00;;;;;;5127137;27;20500;-54
2022/05/29 08:08:29;;;;;;;0.57;0.30;;;15.20;1.00;;;;;;5115585;27;20552;-52
2022/05/29 08:10:57;;;;;;;0.50;0.40;;;14.90;1.00;;;;;;5127570;27;20528;-55
2022/05/29 08:13:24;;;;;;;1.43;0.40;;;14.80;1.00;;;;;;5117107;27;20530;-55
2022/05/29 08:15:51;;;;;;;0.87;0.40;;;14.40;1.00;;;;;;5116498;27;20471;-52
2022/05/29 08:18:18;;;;;;;1.00;0.30;;;14.40;1.00;;;;;;5117971;27;20547;-51
2022/05/29 08:20:46;;;;;;;2.30;0.40;;;14.40;1.00;;;;;;5117034;27;20816;-56
2022/05/29 08:23:13;;;;;;;0.60;0.40;;;14.70;1.00;;;;;;5132505;27;20459;-53
2022/05/29 08:31:25;;;;;;;0.80;0.40;;;14.80;1.00;;;;;;5035999;28;20432;-55
2022/05/29 08:33:51;;;;;;;0.63;0.40;;;15.20;1.00;;;;;;5034878;28;20463;-56
2022/05/29 08:36:24;;;;;;;0.77;0.50;;;15.40;1.00;;;;;;5083054;27;20524;-56
2022/05/29 08:38:53;;;;;;;2.47;0.47;;;15.70;1.00;;;;;;5137096;27;20460;-51
2022/05/29 08:41:27;;;;;;;1.40;0.40;;;15.50;1.00;;;;;;5136882;27;20799;-56
2022/05/29 08:44:03;;;;;;;1.00;0.40;;;15.10;1.00;;;;;;5124862;27;20586;-53
2022/05/29 08:46:35;;;;;;;0.73;0.40;;;14.90;1.00;;;;;;5117229;27;20441;-52
2022/05/29 08:49:02;;;;;;;3.37;0.40;;;14.80;1.00;;;;;;5115536;28;20930;-51
2022/05/29 08:51:54;;;;;;;1.43;0.30;;;14.40;1.00;;;;;;5116285;28;20488;-56
2022/05/29 08:54:29;;;;;;;1.47;0.50;;;14.50;1.00;;;;;;5132576;27;20466;-54
2022/05/29 08:57:05;;;;;;;1.57;0.43;;;14.40;1.00;;;;;;5119417;27;20863;-52
2022/05/29 08:59:45;;;;;;;1.27;0.40;;;14.50;1.00;;;;;;5116236;28;20891;-52
2022/05/29 09:02:17;;;;;;;1.23;0.50;;;14.60;1.00;;;;;;5113724;27;20467;-55
2022/05/29 09:04:50;;;;;;;1.60;0.40;;;14.40;1.00;;;;;;5123024;27;21052;-55
2022/05/29 09:07:22;;;;;;;0.97;0.40;;;14.00;1.00;;;;;;5116645;28;20509;-55
2022/05/29 09:09:52;;;;;;;1.17;0.40;;;14.10;1.00;;;;;;5116581;27;20731;-51
2022/05/29 09:12:22;;;;;;;1.30;0.50;;;14.50;1.00;;;;;;5115627;27;20772;-54
2022/05/29 09:14:52;;;;;;;0.50;0.40;;;14.10;6.00;;;;;;5115688;28;20544;-53
2022/05/29 09:17:29;;;;;;;0.53;0.40;;;14.00;99.90;;;;;;5116250;28;20543;-55
2022/05/29 09:19:59;;;;;;;1.00;0.47;;;14.20;99.90;;;;;;5115376;27;20552;-54
2022/05/29 09:22:30;;;;;;;3.53;0.40;;;13.80;1.00;;;;;;5118892;27;20539;-55
2022/05/29 09:25:04;;;;;;;0.90;0.40;;;13.90;1.00;;;;;;5115891;28;20575;-53
2022/05/29 09:27:33;;;;;;;0.63;0.40;;;14.10;1.00;;;;;;5115429;28;20464;-55
2022/05/29 09:30:00;;;;;;;1.33;0.50;;;14.50;99.90;;;;;;5114184;27;20912;-56
2022/05/29 09:32:30;;;;;;;0.97;0.40;;;14.70;99.90;;;;;;5115599;27;20815;-55
2022/05/29 09:35:09;;;;;;;0.40;0.30;;;14.90;99.90;;;;;;5118501;27;20501;-56
2022/05/29 09:37:48;;;;;;;1.77;0.40;;;15.00;99.90;;;;;;5124604;27;20467;-54
2022/05/29 09:40:21;;;;;;;1.83;0.40;;;15.20;77.00;;;;;;5114461;28;20452;-56
2022/05/29 09:42:48;;;;;;;2.20;0.47;;;15.20;49.70;;;;;;5113840;28;20460;-56
2022/05/29 09:45:26;;;;;;;0.83;0.20;;;15.20;1.00;;;;;;5118994;27;20491;-52
2022/05/29 09:50:50;;;;;;;0.90;0.50;;;15.40;1.00;;;;;;5134653;28;20457;-56
2022/05/29 09:53:21;;;;;;;0.63;0.37;;;15.90;1.00;;;;;;5120905;28;20550;-56
2022/05/29 09:55:58;;;;;;;1.80;0.40;;;16.10;1.00;;;;;;5118978;28;20917;-55
2022/05/29 09:58:30;;;;;;;1.70;0.50;;;16.10;1.00;;;;;;5117448;28;20790;-55
2022/05/29 10:01:01;;;;;;;1.27;0.40;;;16.40;1.00;;;;;;5122051;28;20449;-56
2022/05/29 10:03:42;;;;;;;0.93;0.40;;;16.70;1.00;;;;;;5120851;27;20913;-55
2022/05/29 10:06:14;;;;;;;0.70;0.40;;;17.00;1.00;;;;;;5116951;28;20479;-55
2022/05/29 10:08:44;;;;;;;0.50;0.40;;;16.40;1.00;;;;;;5119696;28;20506;-51
2022/05/29 10:11:16;;;;;;;0.70;0.40;;;16.60;1.00;;;;;;5115146;28;20472;-48
2022/05/29 10:13:44;;;;;;;0.93;0.40;;;16.50;1.00;;;;;;5118013;28;20468;-49
2022/05/29 10:16:12;;;;;;;1.07;0.40;;;16.60;1.00;;;;;;5121725;28;20464;-54
2022/05/29 10:18:40;;;;;;;0.73;0.40;;;16.40;1.00;;;;;;5124586;28;20570;-55
2022/05/29 10:21:15;;;;;;;1.80;0.40;;;16.50;1.00;;;;;;5118837;28;20537;-53
2022/05/29 10:23:50;;;;;;;0.67;0.33;;;16.50;1.00;;;;;;5119679;28;20471;-53
2022/05/29 10:26:35;;;;;;;1.83;0.40;;;16.00;1.00;;;;;;5119110;27;20479;-54
2022/05/29 10:29:12;;;;;;;0.90;0.30;;;15.80;1.00;;;;;;5126684;27;20499;-56
2022/05/29 10:31:41;;;;;;;0.87;0.30;;;15.80;1.00;;;;;;5120826;27;20459;-56
2022/05/29 10:34:10;;;;;;;1.03;0.40;;;15.60;1.00;;;;;;5116562;27;20500;-55
2022/05/29 10:36:39;;;;;;;1.00;0.30;;;15.60;1.00;;;;;;5118116;27;20540;-52
2022/05/29 10:39:13;;;;;;;2.10;0.50;;;15.10;1.00;;;;;;5120843;27;20609;-51
2022/05/29 10:41:42;;;;;;;0.70;0.40;;;14.90;1.00;;;;;;5118499;27;20913;-52
2022/05/29 10:44:11;;;;;;;1.23;0.40;;;14.80;1.00;;;;;;5123793;27;20589;-54
2022/05/29 10:46:42;;;;;;;1.60;0.50;;;14.70;1.00;;;;;;5118641;27;20464;-57
2022/05/29 10:49:22;;;;;;;1.70;0.50;;;14.50;1.00;;;;;;5117322;27;20572;-54
2022/05/29 10:52:20;;;;;;;1.07;0.43;;;14.30;1.00;;;;;;5128606;27;20455;-57
2022/05/29 10:55:21;;;;;;;0.50;0.30;;;14.20;1.00;;;;;;5124886;27;20550;-55
2022/05/29 10:58:12;;;;;;;0.60;0.43;;;14.10;1.00;;;;;;5103548;27;20459;-54
2022/05/29 11:00:47;;;;;;;1.23;0.33;;;14.00;1.00;;;;;;5126192;27;20478;-56
2022/05/29 11:03:34;;;;;;;0.80;0.40;;;14.10;1.00;;;;;;5121899;27;20563;-57
2022/05/29 11:06:41;;;;;;;1.17;0.30;;;14.30;1.00;;;;;;5128125;27;20563;-51
2022/05/29 11:09:24;;;;;;;0.60;0.30;;;14.30;1.00;;;;;;5124470;27;20891;-55
2022/05/29 11:12:01;;;;;;;1.33;0.33;;;14.60;1.00;;;;;;5128892;27;20459;-54
2022/05/29 11:15:12;;;;;;;0.50;0.30;;;14.80;1.00;;;;;;5126517;27;20466;-51
2022/05/29 11:17:51;;;;;;;0.70;0.30;;;14.90;1.00;;;;;;5119461;27;20954;-55
2022/05/29 11:20:52;;;;;;;0.53;0.30;;;15.30;1.00;;;;;;5122061;27;20444;-56
2022/05/29 11:23:33;;;;;;;0.40;0.30;;;15.30;1.00;;;;;;5121137;27;20531;-52
2022/05/29 11:26:08;;;;;;;1.30;0.30;;;15.40;1.00;;;;;;5117177;27;20570;-54
2022/05/29 11:29:09;;;;;;;0.40;0.30;;;15.60;1.00;;;;;;5125030;27;20558;-53
2022/05/29 11:31:47;;;;;;;0.40;0.20;;;16.00;1.00;;;;;;5122742;27;20473;-55
2022/05/29 11:34:26;;;;;;;0.77;0.20;;;16.00;1.00;;;;;;5129651;27;20555;-54
2022/05/29 11:37:27;;;;;;;0.50;0.30;;;16.20;1.00;;;;;;5129626;27;20455;-56
2022/05/29 11:39:58;;;;;;;0.80;0.30;;;16.00;1.00;;;;;;5121238;27;20477;-55
2022/05/29 11:42:28;;;;;;;0.40;0.30;;;16.30;1.00;;;;;;5121064;27;20547;-53
2022/05/29 11:45:03;;;;;;;0.60;0.30;;;16.20;1.00;;;;;;5122608;27;20575;-55
2022/05/29 11:53:18;;;;;;;0.70;0.20;;;18.30;1.00;;;;;;5127822;27;20858;-56
2022/05/29 11:55:47;;;;;;;0.77;0.30;;;18.20;1.00;;;;;;5116499;27;20539;-53
2022/05/29 11:58:19;;;;;;;0.50;0.30;;;18.10;1.00;;;;;;5114958;28;20459;-56
2022/05/29 12:00:53;;;;;;;0.40;0.30;;;17.70;1.00;;;;;;5135599;27;20546;-54
2022/05/29 12:03:31;;;;;;;0.40;0.30;;;17.00;1.00;;;;;;5119104;27;20547;-54
2022/05/29 12:06:02;;;;;;;0.60;0.30;;;17.10;1.00;;;;;;5116504;27;20571;-56
2022/05/29 12:08:36;;;;;;;2.40;0.30;;;17.20;1.00;;;;;;5115860;27;20457;-54
2022/05/29 12:11:13;;;;;;;1.00;0.27;;;17.20;1.00;;;;;;5114957;27;20457;-56
2022/05/29 12:13:53;;;;;;;0.50;0.20;;;16.90;1.00;;;;;;5115395;27;20506;-54
2022/05/29 12:16:27;;;;;;;0.67;0.30;;;16.90;1.00;;;;;;5135924;27;20531;-54
2022/05/29 12:18:56;;;;;;;0.60;0.30;;;17.00;1.00;;;;;;5136048;27;20481;-52
2022/05/29 12:21:31;;;;;;;1.27;0.27;;;17.40;1.00;;;;;;5115962;27;20513;-54
2022/05/29 12:24:00;;;;;;;0.87;0.30;;;18.20;1.00;;;;;;5135607;27;20462;-56
2022/05/29 12:26:37;;;;;;;0.40;0.20;;;18.80;1.00;;;;;;5136508;27;20540;-56
2022/05/29 12:29:08;;;;;;;2.60;0.30;;;18.90;1.00;;;;;;5129581;27;20559;-56
2022/05/29 12:31:40;;;;;;;0.63;0.30;;;18.70;1.00;;;;;;5123162;27;20498;-54
2022/05/29 12:34:15;;;;;;;0.80;0.40;;;18.20;1.00;;;;;;5135495;27;20462;-54
2022/05/29 12:37:07;;;;;;;0.73;0.33;;;17.20;1.00;;;;;;5120422;27;20451;-50
2022/05/29 12:39:53;;;;;;;0.60;0.30;;;16.30;1.00;;;;;;5115608;27;20551;-53
2022/05/29 12:42:37;;;;;;;0.53;0.30;;;16.10;1.00;;;;;;5115916;27;20755;-55
2022/05/29 12:45:26;;;;;;;0.60;0.30;;;16.10;1.00;;;;;;5114804;27;20571;-54
2022/05/29 12:48:23;;;;;;;0.87;0.40;;;15.80;1.00;;;;;;5113469;27;20568;-53
2022/05/29 12:51:25;;;;;;;0.90;0.43;;;15.70;1.00;;;;;;5115747;27;20589;-56
2022/05/29 12:54:31;;;;;;;0.60;0.33;;;15.70;1.00;;;;;;5087383;27;20505;-52
2022/05/29 12:57:29;;;;;;;0.60;0.30;;;16.30;1.00;;;;;;5080256;27;20759;-51
2022/05/29 13:00:23;;;;;;;1.27;0.40;;;16.70;1.00;;;;;;5130176;27;20895;-51
2022/05/29 13:03:21;;;;;;;1.27;0.30;;;16.60;1.00;;;;;;5134609;27;20447;-52
2022/05/29 13:06:26;;;;;;;0.50;0.30;;;16.00;1.00;;;;;;5121391;27;20508;-52
2022/05/29 13:09:12;;;;;;;0.70;0.40;;;15.50;1.00;;;;;;5121179;27;20551;-52
2022/05/29 13:11:48;;;;;;;4.10;0.50;;;15.30;1.00;;;;;;5115247;27;20531;-53
2022/05/29 13:14:17;;;;;;;1.53;0.40;;;15.50;1.00;;;;;;5117767;27;20456;-53
2022/05/29 13:16:46;;;;;;;0.43;0.30;;;15.90;1.00;;;;;;5135564;27;20443;-54
2022/05/29 13:19:18;;;;;;;0.60;0.30;;;16.60;1.00;;;;;;5135834;27;20546;-52
2022/05/29 13:21:57;;;;;;;0.50;0.30;;;16.90;1.00;;;;;;5134883;27;20448;-52
2022/05/29 13:24:25;;;;;;;0.87;0.43;;;17.20;1.00;;;;;;5112838;28;21021;-54
2022/05/29 13:27:32;;;;;;;0.97;0.30;;;16.80;1.00;;;;;;5115162;28;20574;-55
2022/05/29 13:30:02;;;;;;;0.40;0.20;;;16.60;1.00;;;;;;5107904;27;20452;-55
2022/05/29 13:32:30;;;;;;;0.60;0.30;;;16.80;1.00;;;;;;5111978;28;20953;-55
2022/05/29 13:35:35;;;;;;;0.50;0.20;;;16.50;1.00;;;;;;5112291;28;20481;-52
2022/05/29 13:38:03;;;;;;;0.40;0.30;;;17.20;1.00;;;;;;5111358;27;20559;-55
2022/05/29 13:40:45;;;;;;;0.90;0.60;;;17.40;1.00;;;;;;5134276;27;20542;-55
2022/05/29 13:43:39;;;;;;;0.67;0.30;;;17.40;1.00;;;;;;5114711;28;20902;-54
2022/05/29 13:46:20;;;;;;;0.80;0.40;;;17.80;1.00;;;;;;5115247;28;21085;-56
2022/05/29 13:49:20;;;;;;;0.50;0.20;;;18.50;1.00;;;;;;5116308;28;20959;-56
2022/05/29 13:51:48;;;;;;;1.23;0.20;;;18.60;1.00;;;;;;5117566;28;20462;-53
2022/05/29 13:54:27;;;;;;;0.50;0.30;;;18.30;1.00;;;;;;5122372;28;20972;-55
2022/05/29 13:57:02;;;;;;;0.50;0.20;;;18.00;1.00;;;;;;5120665;28;20838;-56
2022/05/29 14:05:30;;;;;;;0.70;0.30;;;17.00;1.00;;;;;;5123955;27;20869;-56